Time;durP1;ratioP1;P1;durP2;ratioP2;P2;SDS_P1;SDS_P2;PMS_P1;PMS_P2;Temp;Humidity;BMP_temperature;BMP_pressure;BME280_temperature;BME280_humidity;BME280_pressure;Samples;Min_cycle;Max_cycle;Signal;HPM_P1;HPM_P2
2022/07/27 00:00:29;;;;;;;;;;;15.90;62.40;;;;;;5034321;28;20427;-81
2022/07/27 00:02:55;;;;;;;;;;;16.00;62.40;;;;;;5068466;28;19988;-81
2022/07/27 00:05:22;;;;;;;;;;;16.00;62.30;;;;;;5050549;28;20361;-81
2022/07/27 00:07:47;;;;;;;;;;;16.00;62.20;;;;;;5067773;28;19912;-81
2022/07/27 00:10:13;;;;;;;;;;;16.00;62.20;;;;;;5033785;28;19969;-81
2022/07/27 00:12:39;;;;;;;;;;;16.00;62.20;;;;;;5068330;28;19909;-80
2022/07/27 00:15:04;;;;;;;;;;;16.00;62.20;;;;;;5050307;28;19913;-81
2022/07/27 00:17:30;;;;;;;;;;;16.00;62.20;;;;;;5068138;28;20438;-80
2022/07/27 00:19:56;;;;;;;;;;;15.90;62.20;;;;;;5068276;28;20050;-81
2022/07/27 00:22:21;;;;;;;;;;;15.90;62.20;;;;;;5033554;28;20369;-81
2022/07/27 00:24:48;;;;;;;;;;;15.90;62.20;;;;;;5050313;28;19930;-81
2022/07/27 00:27:13;;;;;;;;;;;15.90;62.20;;;;;;5068237;28;19908;-81
2022/07/27 00:29:39;;;;;;;;;;;15.90;62.20;;;;;;5050055;28;19915;-81
2022/07/27 00:32:05;;;;;;;;;;;15.90;62.20;;;;;;5050247;28;19990;-81
2022/07/27 00:34:30;;;;;;;;;;;15.90;62.20;;;;;;5033361;28;20329;-81
2022/07/27 00:36:56;;;;;;;;;;;15.90;62.20;;;;;;5033717;28;20320;-81
2022/07/27 00:39:22;;;;;;;;;;;15.90;62.20;;;;;;5050109;28;19923;-81
2022/07/27 00:41:47;;;;;;;;;;;16.00;62.30;;;;;;5050028;28;20345;-81
2022/07/27 00:44:13;;;;;;;;;;;16.00;62.20;;;;;;5067938;28;19909;-81
2022/07/27 00:46:38;;;;;;;;;;;16.00;62.20;;;;;;5050165;28;19933;-81
2022/07/27 00:49:04;;;;;;;;;;;15.90;62.20;;;;;;5049984;28;20277;-83
2022/07/27 00:51:31;;;;;;;;;;;15.90;62.10;;;;;;5049696;28;19921;-83
2022/07/27 00:53:57;;;;;;;;;;;16.00;62.20;;;;;;5049814;28;19959;-83
2022/07/27 00:56:23;;;;;;;;;;;16.00;62.30;;;;;;5049826;28;20345;-81
2022/07/27 00:58:49;;;;;;;;;;;16.00;62.30;;;;;;5068083;28;19943;-81
2022/07/27 01:01:15;;;;;;;;;;;15.90;62.30;;;;;;5049847;28;19958;-83
2022/07/27 01:03:41;;;;;;;;;;;15.90;62.30;;;;;;5049779;28;20349;-83
2022/07/27 01:06:07;;;;;;;;;;;15.90;62.40;;;;;;5067804;28;19919;-83
2022/07/27 01:08:33;;;;;;;;;;;15.90;62.30;;;;;;5067787;28;20321;-83
2022/07/27 01:10:58;;;;;;;;;;;15.90;62.30;;;;;;5049651;28;19923;-83
2022/07/27 01:13:25;;;;;;;;;;;15.90;62.40;;;;;;5049713;28;19909;-81
2022/07/27 01:15:51;;;;;;;;;;;15.90;62.50;;;;;;5049990;28;20257;-83
2022/07/27 01:18:36;;;;;;;;;;;15.90;62.50;;;;;;5049563;28;19965;-83
2022/07/27 01:21:03;;;;;;;;;;;15.90;63.00;;;;;;5071661;28;20196;-83
2022/07/27 01:23:31;;;;;;;;;;;15.80;62.40;;;;;;5053562;28;19908;-83
2022/07/27 01:25:57;;;;;;;;;;;15.80;62.40;;;;;;5071497;28;19908;-83
2022/07/27 01:28:23;;;;;;;;;;;15.80;62.40;;;;;;5071529;28;19923;-83
2022/07/27 01:30:48;;;;;;;;;;;15.70;62.40;;;;;;5071426;28;20272;-82
2022/07/27 01:33:14;;;;;;;;;;;15.60;62.40;;;;;;5053138;28;19917;-83
2022/07/27 01:35:40;;;;;;;;;;;15.50;62.50;;;;;;5053155;28;20007;-83
2022/07/27 01:38:07;;;;;;;;;;;15.40;63.00;;;;;;5053234;28;19912;-83
2022/07/27 01:40:32;;;;;;;;;;;15.30;62.50;;;;;;5071240;28;19908;-83
2022/07/27 01:42:58;;;;;;;;;;;15.20;62.50;;;;;;5053361;28;19962;-82
2022/07/27 01:45:24;;;;;;;;;;;15.00;62.50;;;;;;5053280;28;19920;-83
2022/07/27 01:47:49;;;;;;;;;;;14.90;62.70;;;;;;5052985;28;20273;-83
2022/07/27 01:50:15;;;;;;;;;;;14.80;62.90;;;;;;5053007;28;19920;-83
2022/07/27 01:52:40;;;;;;;;;;;14.70;63.00;;;;;;5070996;28;19935;-83
2022/07/27 01:55:07;;;;;;;;;;;14.70;62.90;;;;;;5070873;28;19959;-83
2022/07/27 01:57:32;;;;;;;;;;;14.70;62.90;;;;;;5053141;28;19940;-83
2022/07/27 01:59:59;;;;;;;;;;;14.70;62.80;;;;;;5036329;28;20320;-83
2022/07/27 02:02:24;;;;;;;;;;;14.80;62.80;;;;;;5070787;28;19912;-83
2022/07/27 02:04:50;;;;;;;;;;;14.70;62.80;;;;;;5052828;28;19965;-82
2022/07/27 02:07:15;;;;;;;;;;;14.70;62.80;;;;;;5036695;28;20284;-83
2022/07/27 02:09:41;;;;;;;;;;;14.70;62.80;;;;;;5052829;28;19958;-83
2022/07/27 02:14:51;;;;;;;;;;;14.70;62.70;;;;;;5070591;28;19920;-83
2022/07/27 02:17:16;;;;;;;;;;;14.80;62.60;;;;;;5052722;28;19913;-83
2022/07/27 02:19:42;;;;;;;;;;;14.80;62.60;;;;;;5052546;28;19917;-83
2022/07/27 02:22:07;;;;;;;;;;;14.80;62.60;;;;;;5035924;28;19913;-83
2022/07/27 02:24:34;;;;;;;;;;;14.80;62.60;;;;;;5052471;28;19920;-83
2022/07/27 02:26:59;;;;;;;;;;;14.70;62.70;;;;;;5052437;28;20292;-82
2022/07/27 02:29:25;;;;;;;;;;;14.60;62.70;;;;;;5052372;28;19916;-83
2022/07/27 02:31:50;;;;;;;;;;;14.50;62.90;;;;;;5051476;28;20383;-83
2022/07/27 02:34:16;;;;;;;;;;;14.50;63.00;;;;;;5052052;28;20355;-83
2022/07/27 02:36:41;;;;;;;;;;;14.50;62.90;;;;;;5052168;28;19923;-83
2022/07/27 02:39:07;;;;;;;;;;;14.50;62.80;;;;;;5052151;28;19909;-83
2022/07/27 02:41:32;;;;;;;;;;;14.40;62.90;;;;;;5070137;28;20008;-83
2022/07/27 02:43:58;;;;;;;;;;;14.40;63.00;;;;;;5052083;28;19920;-83
2022/07/27 02:46:24;;;;;;;;;;;14.30;62.90;;;;;;5052106;28;19923;-83
2022/07/27 02:48:49;;;;;;;;;;;14.40;62.90;;;;;;5052141;28;20007;-83
2022/07/27 02:51:15;;;;;;;;;;;14.40;62.90;;;;;;5035279;28;20335;-83
2022/07/27 02:53:40;;;;;;;;;;;14.40;62.80;;;;;;5069914;28;19912;-83
2022/07/27 02:56:06;;;;;;;;;;;14.40;62.60;;;;;;5069668;28;20031;-83
2022/07/27 02:58:31;;;;;;;;;;;14.30;62.60;;;;;;5035262;28;19944;-83
2022/07/27 03:00:57;;;;;;;;;;;14.20;62.60;;;;;;5051831;28;19912;-82
2022/07/27 03:03:23;;;;;;;;;;;14.10;62.70;;;;;;5069703;28;19967;-83
2022/07/27 03:05:48;;;;;;;;;;;14.00;62.80;;;;;;5051871;28;20005;-83
2022/07/27 03:08:14;;;;;;;;;;;14.00;63.50;;;;;;5051762;28;19917;-83
2022/07/27 03:10:40;;;;;;;;;;;14.00;63.00;;;;;;5051869;28;19917;-83
2022/07/27 03:13:05;;;;;;;;;;;14.10;62.90;;;;;;5051396;28;20277;-83
2022/07/27 03:15:31;;;;;;;;;;;14.10;62.90;;;;;;5051524;28;20284;-83
2022/07/27 03:17:57;;;;;;;;;;;14.20;62.90;;;;;;5069522;28;19909;-83
2022/07/27 03:20:23;;;;;;;;;;;14.20;62.70;;;;;;5034722;28;19923;-83
2022/07/27 03:22:48;;;;;;;;;;;14.00;62.60;;;;;;5051401;28;19966;-83
2022/07/27 03:25:14;;;;;;;;;;;13.90;62.90;;;;;;5051435;28;20178;-83
2022/07/27 03:27:39;;;;;;;;;;;13.90;63.00;;;;;;5034717;28;20360;-82
2022/07/27 03:30:05;;;;;;;;;;;13.90;62.90;;;;;;5051204;28;19959;-83
2022/07/27 03:32:31;;;;;;;;;;;14.00;63.00;;;;;;5034682;28;19923;-82
2022/07/27 03:34:56;;;;;;;;;;;14.10;63.00;;;;;;5050778;28;20020;-83
2022/07/27 03:37:22;;;;;;;;;;;14.10;62.90;;;;;;5069128;28;19916;-83
2022/07/27 03:39:47;;;;;;;;;;;14.20;62.90;;;;;;5051069;28;20283;-83
2022/07/27 03:42:13;;;;;;;;;;;14.20;62.80;;;;;;5050950;28;19955;-83
2022/07/27 03:44:39;;;;;;;;;;;14.20;62.80;;;;;;5050291;28;19962;-83
2022/07/27 03:47:04;;;;;;;;;;;14.10;62.90;;;;;;5051185;28;20361;-83
2022/07/27 03:49:30;;;;;;;;;;;14.10;63.00;;;;;;5034446;28;19970;-83
2022/07/27 03:51:56;;;;;;;;;;;14.00;63.10;;;;;;5034206;28;19916;-83
2022/07/27 03:54:21;;;;;;;;;;;14.00;63.20;;;;;;5068718;28;19916;-82
2022/07/27 03:56:47;;;;;;;;;;;14.00;63.10;;;;;;5050668;28;20388;-83
2022/07/27 03:59:12;;;;;;;;;;;14.00;63.10;;;;;;5068985;28;20252;-83
2022/07/27 04:01:38;;;;;;;;;;;14.00;63.00;;;;;;5050719;28;19917;-83
2022/07/27 04:04:04;;;;;;;;;;;14.00;63.00;;;;;;5068593;28;19912;-83
2022/07/27 04:06:29;;;;;;;;;;;13.90;62.90;;;;;;5068388;28;20012;-83
2022/07/27 04:08:55;;;;;;;;;;;13.80;62.90;;;;;;5033761;28;19916;-83
2022/07/27 04:11:20;;;;;;;;;;;13.70;63.00;;;;;;5050424;28;19943;-83
2022/07/27 04:13:49;;;;;;;;;;;13.60;63.20;;;;;;5050396;28;19985;-82
2022/07/27 04:16:15;;;;;;;;;;;13.50;63.30;;;;;;5050355;28;19988;-83
2022/07/27 04:18:41;;;;;;;;;;;13.50;63.30;;;;;;5068316;28;20386;-82
2022/07/27 04:21:06;;;;;;;;;;;13.50;63.30;;;;;;5050337;28;19923;-83
2022/07/27 04:23:32;;;;;;;;;;;13.50;63.30;;;;;;5068176;28;19919;-82
2022/07/27 04:25:58;;;;;;;;;;;13.60;63.20;;;;;;5050235;28;19908;-82
2022/07/27 04:28:23;;;;;;;;;;;13.60;63.10;;;;;;5050246;28;19908;-83
2022/07/27 04:30:49;;;;;;;;;;;13.70;63.60;;;;;;5050001;28;19917;-83
2022/07/27 04:33:15;;;;;;;;;;;13.70;63.10;;;;;;5049916;28;19921;-83
2022/07/27 04:35:40;;;;;;;;;;;13.70;63.10;;;;;;5033483;28;19951;-83
2022/07/27 04:38:06;;;;;;;;;;;13.70;63.00;;;;;;5050132;28;19955;-83
2022/07/27 04:40:32;;;;;;;;;;;13.70;63.10;;;;;;5068476;28;19912;-83
2022/07/27 04:42:58;;;;;;;;;;;13.70;63.30;;;;;;5049989;28;19912;-82
2022/07/27 04:45:24;;;;;;;;;;;13.70;63.40;;;;;;5049974;28;20011;-83
2022/07/27 04:47:49;;;;;;;;;;;13.80;63.30;;;;;;5067923;28;20349;-83
2022/07/27 04:50:15;;;;;;;;;;;13.90;63.30;;;;;;5049789;28;19916;-83
2022/07/27 04:52:41;;;;;;;;;;;13.90;63.10;;;;;;5049801;28;20007;-83
2022/07/27 04:55:06;;;;;;;;;;;14.00;63.10;;;;;;5032821;28;19921;-83
2022/07/27 04:57:32;;;;;;;;;;;14.00;63.10;;;;;;5049608;28;19920;-83
2022/07/27 04:59:58;;;;;;;;;;;14.00;63.10;;;;;;5033282;28;19916;-83
2022/07/27 05:02:25;;;;;;;;;;;13.90;63.20;;;;;;5033339;28;19920;-83
2022/07/27 05:04:51;;;;;;;;;;;14.00;63.20;;;;;;5067726;28;19920;-83
2022/07/27 05:07:17;;;;;;;;;;;14.10;63.30;;;;;;5049806;28;19908;-83
2022/07/27 05:09:42;;;;;;;;;;;14.10;63.10;;;;;;5049697;28;20058;-83
2022/07/27 05:12:08;;;;;;;;;;;14.10;63.00;;;;;;5067664;28;19977;-83
2022/07/27 05:14:34;;;;;;;;;;;14.10;63.20;;;;;;5049646;28;19916;-83
2022/07/27 05:17:00;;;;;;;;;;;14.00;63.30;;;;;;5049754;28;19940;-83
2022/07/27 05:19:25;;;;;;;;;;;14.00;63.30;;;;;;5067735;28;19923;-82
2022/07/27 05:21:51;;;;;;;;;;;14.10;63.40;;;;;;5033109;28;20208;-82
2022/07/27 05:24:16;;;;;;;;;;;14.20;63.30;;;;;;5049621;28;19912;-83
2022/07/27 05:26:42;;;;;;;;;;;14.20;63.30;;;;;;5033273;28;20347;-83
2022/07/27 05:29:07;;;;;;;;;;;14.30;63.80;;;;;;5049401;28;19917;-83
2022/07/27 05:31:33;;;;;;;;;;;14.40;63.30;;;;;;5067565;28;19979;-84
2022/07/27 05:33:59;;;;;;;;;;;14.40;63.20;;;;;;5049194;28;20285;-83
2022/07/27 05:36:24;;;;;;;;;;;14.30;63.30;;;;;;5049430;28;19913;-83
2022/07/27 05:38:50;;;;;;;;;;;14.30;63.30;;;;;;5049981;28;19963;-83
2022/07/27 05:41:20;;;;;;;;;;;14.40;63.40;;;;;;5067449;28;20292;-83
2022/07/27 05:43:46;;;;;;;;;;;14.50;63.30;;;;;;5049432;28;20311;-83
2022/07/27 05:46:12;;;;;;;;;;;14.60;63.30;;;;;;5067264;28;19920;-83
2022/07/27 05:48:37;;;;;;;;;;;14.60;63.30;;;;;;5049375;28;19961;-83
2022/07/27 05:51:03;;;;;;;;;;;14.70;63.30;;;;;;5049377;28;19920;-83
2022/07/27 05:53:28;;;;;;;;;;;14.80;63.30;;;;;;5049404;28;19915;-82
2022/07/27 05:55:54;;;;;;;;;;;14.90;63.30;;;;;;5049773;28;20569;-83
2022/07/27 05:58:19;;;;;;;;;;;14.90;63.20;;;;;;5049103;28;19913;-82
2022/07/27 06:00:45;;;;;;;;;;;15.00;63.20;;;;;;5032539;28;19954;-82
2022/07/27 06:03:10;;;;;;;;;;;15.00;63.20;;;;;;5049151;28;19917;-82
2022/07/27 06:05:36;;;;;;;;;;;14.90;63.20;;;;;;5032449;28;19920;-82
2022/07/27 06:08:07;;;;;;;;;;;14.90;63.30;;;;;;5036480;28;19919;-82
2022/07/27 06:10:33;;;;;;;;;;;15.00;63.50;;;;;;5036820;28;20446;-82
2022/07/27 06:13:00;;;;;;;;;;;15.00;63.40;;;;;;5070432;28;19916;-82
2022/07/27 06:15:25;;;;;;;;;;;15.10;63.30;;;;;;5052517;28;19912;-82
2022/07/27 06:17:54;;;;;;;;;;;15.20;63.30;;;;;;5052996;28;20331;-82
2022/07/27 06:20:20;;;;;;;;;;;15.30;63.30;;;;;;5036298;28;19912;-82
2022/07/27 06:22:48;;;;;;;;;;;15.40;63.30;;;;;;5052450;28;19909;-81
2022/07/27 06:25:14;;;;;;;;;;;15.50;63.20;;;;;;5070194;28;19909;-82
2022/07/27 06:27:40;;;;;;;;;;;15.50;63.20;;;;;;5052098;28;19955;-81
2022/07/27 06:30:06;;;;;;;;;;;15.70;63.10;;;;;;5035938;28;20280;-82
2022/07/27 06:32:32;;;;;;;;;;;15.70;63.00;;;;;;5070796;28;20361;-82
2022/07/27 06:34:59;;;;;;;;;;;15.80;63.00;;;;;;5049672;28;19921;-82
2022/07/27 06:37:26;;;;;;;;;;;15.90;63.10;;;;;;5032341;28;20183;-82
2022/07/27 06:39:51;;;;;;;;;;;16.00;63.10;;;;;;5031629;28;20334;-82
2022/07/27 06:42:17;;;;;;;;;;;16.10;63.00;;;;;;5048148;28;19920;-82
2022/07/27 06:44:43;;;;;;;;;;;16.10;63.00;;;;;;5048066;28;20299;-79
2022/07/27 06:47:08;;;;;;;;;;;16.20;63.00;;;;;;5048583;28;19913;-82
2022/07/27 06:49:34;;;;;;;;;;;16.30;63.10;;;;;;5048789;28;20039;-82
2022/07/27 06:51:59;;;;;;;;;;;16.40;63.00;;;;;;5048330;28;19920;-82
2022/07/27 06:54:25;;;;;;;;;;;16.50;62.90;;;;;;5049812;28;19916;-82
2022/07/27 06:56:50;;;;;;;;;;;16.60;62.90;;;;;;5048342;28;20265;-82
2022/07/27 06:59:16;;;;;;;;;;;16.70;62.80;;;;;;5048366;28;19913;-82
2022/07/27 07:01:42;;;;;;;;;;;16.80;62.80;;;;;;5048050;28;19913;-82
2022/07/27 07:04:08;;;;;;;;;;;16.90;62.70;;;;;;5048212;28;19919;-82
2022/07/27 07:06:34;;;;;;;;;;;17.00;62.80;;;;;;5049930;28;19908;-82
2022/07/27 07:08:59;;;;;;;;;;;17.10;62.80;;;;;;5048457;28;20380;-82
2022/07/27 07:11:25;;;;;;;;;;;17.20;62.80;;;;;;5049420;28;19955;-82
2022/07/27 07:13:51;;;;;;;;;;;17.20;62.80;;;;;;5031234;28;19917;-82
2022/07/27 07:16:16;;;;;;;;;;;17.30;62.90;;;;;;5031324;28;20369;-81
2022/07/27 07:18:42;;;;;;;;;;;17.40;63.00;;;;;;5049143;28;20211;-82
2022/07/27 07:21:08;;;;;;;;;;;17.40;62.90;;;;;;5031852;28;20000;-82
2022/07/27 07:23:33;;;;;;;;;;;17.50;63.00;;;;;;5049285;28;20007;-82
2022/07/27 07:25:59;;;;;;;;;;;17.40;63.10;;;;;;5047901;28;20363;-82
2022/07/27 07:28:24;;;;;;;;;;;17.40;63.20;;;;;;5047910;28;19921;-80
2022/07/27 07:30:50;;;;;;;;;;;17.40;63.30;;;;;;5048978;28;20058;-82
2022/07/27 07:33:16;;;;;;;;;;;17.50;63.40;;;;;;5049352;28;19920;-82
2022/07/27 07:35:42;;;;;;;;;;;17.60;63.50;;;;;;5030766;28;19931;-82
2022/07/27 07:38:08;;;;;;;;;;;17.60;63.60;;;;;;5048239;28;19924;-82
2022/07/27 07:40:33;;;;;;;;;;;17.80;63.50;;;;;;5048806;28;19909;-82
2022/07/27 07:43:01;;;;;;;;;;;18.00;63.50;;;;;;5048726;28;20015;-83
2022/07/27 07:45:28;;;;;;;;;;;18.20;63.50;;;;;;5047825;28;19991;-82
2022/07/27 07:47:54;;;;;;;;;;;18.50;63.60;;;;;;5049248;28;19995;-83
2022/07/27 07:50:20;;;;;;;;;;;18.70;63.30;;;;;;5047718;28;19917;-83
2022/07/27 07:52:50;;;;;;;;;;;19.10;63.30;;;;;;5047251;28;19913;-83
2022/07/27 07:55:18;;;;;;;;;;;19.40;63.20;;;;;;5048228;28;20261;-83
2022/07/27 07:57:43;;;;;;;;;;;19.80;63.10;;;;;;5049415;28;19913;-82
2022/07/27 08:00:10;;;;;;;;;;;20.30;63.10;;;;;;5047896;28;19935;-83
2022/07/27 08:02:45;;;;;;;;;;;21.10;63.20;;;;;;5047957;28;19916;-83
2022/07/27 08:05:11;;;;;;;;;;;21.70;62.30;;;;;;5047174;28;19943;-83
2022/07/27 08:07:37;;;;;;;;;;;21.80;62.10;;;;;;5048878;28;19915;-82
2022/07/27 08:10:03;;;;;;;;;;;21.90;62.10;;;;;;5047136;28;19909;-82
2022/07/27 08:12:29;;;;;;;;;;;22.10;62.50;;;;;;5047336;28;20012;-83
2022/07/27 08:14:54;;;;;;;;;;;22.50;62.40;;;;;;5048023;28;20027;-82
2022/07/27 08:17:20;;;;;;;;;;;22.70;62.20;;;;;;5046870;28;20031;-82
2022/07/27 08:19:45;;;;;;;;;;;22.90;62.40;;;;;;5030586;28;19943;-82
2022/07/27 08:22:11;;;;;;;;;;;23.10;62.60;;;;;;5046686;28;19923;-83
2022/07/27 08:24:36;;;;;;;;;;;23.40;62.50;;;;;;5048381;28;19913;-82
2022/07/27 08:27:02;;;;;;;;;;;23.80;62.60;;;;;;5046870;28;20273;-83
2022/07/27 08:29:28;;;;;;;;;;;24.20;62.10;;;;;;5047849;28;20371;-82
2022/07/27 08:31:53;;;;;;;;;;;24.20;62.10;;;;;;5046965;28;20019;-83
2022/07/27 08:34:19;;;;;;;;;;;24.40;62.20;;;;;;5029590;28;19928;-83
2022/07/27 08:36:44;;;;;;;;;;;24.50;62.10;;;;;;5046654;28;20070;-83
2022/07/27 08:39:10;;;;;;;;;;;24.60;61.90;;;;;;5030029;28;20293;-82
2022/07/27 08:41:39;;;;;;;;;;;24.50;61.80;;;;;;5046410;28;20013;-71
2022/07/27 08:44:05;;;;;;;;;;;24.20;61.90;;;;;;5047293;28;20042;-82
2022/07/27 08:46:31;;;;;;;;;;;23.70;62.20;;;;;;5047757;28;19919;-82
2022/07/27 08:48:59;;;;;;;;;;;23.20;62.50;;;;;;5047793;28;19999;-83
2022/07/27 08:51:25;;;;;;;;;;;22.70;62.80;;;;;;5046691;28;19920;-83
2022/07/27 08:53:51;;;;;;;;;;;22.20;63.00;;;;;;5047068;28;19913;-83
2022/07/27 08:56:17;;;;;;;;;;;21.90;63.30;;;;;;5047963;28;19920;-81
2022/07/27 08:58:43;;;;;;;;;;;21.70;63.40;;;;;;5047994;28;19913;-81
2022/07/27 09:01:09;;;;;;;;;;;21.60;63.40;;;;;;5046230;28;19913;-83
2022/07/27 09:03:34;;;;;;;;;;;21.50;63.30;;;;;;5046518;28;20347;-81
2022/07/27 09:06:00;;;;;;;;;;;21.40;63.40;;;;;;5047874;28;19908;-82
2022/07/27 09:08:27;;;;;;;;;;;21.30;63.30;;;;;;5048412;28;19913;-83
2022/07/27 09:10:55;;;;;;;;;;;21.20;63.20;;;;;;5046675;28;19913;-83
2022/07/27 09:13:32;;;;;;;;;;;21.10;63.30;;;;;;5047742;28;19909;-79
2022/07/27 09:15:59;;;;;;;;;;;21.00;63.30;;;;;;5048161;28;19955;-83
2022/07/27 09:18:25;;;;;;;;;;;21.00;63.40;;;;;;5048394;28;19985;-83
2022/07/27 09:21:11;;;;;;;;;;;20.90;63.40;;;;;;5047555;28;19958;-82
2022/07/27 09:23:38;;;;;;;;;;;21.00;63.70;;;;;;5047356;28;20383;-82
2022/07/27 09:26:20;;;;;;;;;;;21.20;63.60;;;;;;5047413;28;20360;-82
2022/07/27 09:28:46;;;;;;;;;;;21.30;63.40;;;;;;5046453;28;20058;-83
2022/07/27 09:31:13;;;;;;;;;;;21.30;63.40;;;;;;5047965;28;19924;-81
2022/07/27 09:33:55;;;;;;;;;;;21.40;64.10;;;;;;5048805;28;19909;-81
2022/07/27 09:36:22;;;;;;;;;;;21.50;63.50;;;;;;5067351;28;19913;-81
2022/07/27 09:38:51;;;;;;;;;;;21.50;63.20;;;;;;5068163;28;19912;-76
2022/07/27 09:41:17;;;;;;;;;;;21.50;63.20;;;;;;5070069;28;19995;-82
2022/07/27 09:43:47;;;;;;;;;;;21.50;63.60;;;;;;5071500;28;20412;-82
2022/07/27 09:46:13;;;;;;;;;;;21.60;64.20;;;;;;5053246;28;19912;-82
2022/07/27 09:48:38;;;;;;;;;;;21.70;63.50;;;;;;5053518;28;19913;-82
2022/07/27 09:51:06;;;;;;;;;;;21.80;63.10;;;;;;5054345;28;20291;-82
2022/07/27 09:53:33;;;;;;;;;;;21.80;63.10;;;;;;5070536;28;19912;-81
2022/07/27 09:56:00;;;;;;;;;;;21.70;63.00;;;;;;5071273;28;20550;-81
2022/07/27 09:58:46;;;;;;;;;;;21.60;63.00;;;;;;5052974;28;19991;-82
2022/07/27 10:01:22;;;;;;;;;;;21.40;63.20;;;;;;5069997;28;20410;-81
2022/07/27 10:03:48;;;;;;;;;;;21.20;63.20;;;;;;5052843;28;19922;-80
2022/07/27 10:06:14;;;;;;;;;;;21.20;63.20;;;;;;5071263;28;19962;-81
2022/07/27 10:08:45;;;;;;;;;;;21.10;63.10;;;;;;5052876;28;19917;-81
2022/07/27 10:11:11;;;;;;;;;;;21.20;63.10;;;;;;5052603;28;19912;-81
2022/07/27 10:13:37;;;;;;;;;;;21.10;63.20;;;;;;5052371;28;19915;-81
2022/07/27 10:16:03;;;;;;;;;;;21.00;63.00;;;;;;5054226;28;19919;-80
2022/07/27 10:18:32;;;;;;;;;;;20.90;63.10;;;;;;5054725;28;19913;-81
2022/07/27 10:21:02;;;;;;;;;;;20.90;63.10;;;;;;5052713;28;19908;-80
2022/07/27 10:23:28;;;;;;;;;;;20.70;62.90;;;;;;5052452;28;19913;-81
2022/07/27 10:26:12;;;;;;;;;;;20.60;63.00;;;;;;5054469;28;20581;-81
2022/07/27 10:28:48;;;;;;;;;;;20.50;63.00;;;;;;5075628;28;20256;-81
2022/07/27 10:31:16;;;;;;;;;;;20.40;63.10;;;;;;5052223;28;19927;-80
2022/07/27 10:33:45;;;;;;;;;;;20.30;63.10;;;;;;5069869;28;20400;-80
2022/07/27 10:36:15;;;;;;;;;;;20.20;63.10;;;;;;5052107;28;19917;-82
2022/07/27 10:38:46;;;;;;;;;;;20.10;63.20;;;;;;5052138;28;20427;-81
2022/07/27 10:41:21;;;;;;;;;;;20.10;63.10;;;;;;5051627;28;19919;-81
2022/07/27 10:43:49;;;;;;;;;;;20.10;63.20;;;;;;5069683;28;19957;-81
2022/07/27 10:46:19;;;;;;;;;;;20.10;63.20;;;;;;5052059;28;19958;-80
2022/07/27 10:48:45;;;;;;;;;;;20.00;63.20;;;;;;5051920;28;19916;-80
2022/07/27 10:51:11;;;;;;;;;;;20.00;63.10;;;;;;5051570;28;19935;-81
2022/07/27 10:53:39;;;;;;;;;;;20.10;63.20;;;;;;5051367;28;19931;-81
2022/07/27 10:56:05;;;;;;;;;;;20.10;63.20;;;;;;5069476;28;20007;-81
2022/07/27 10:58:31;;;;;;;;;;;20.20;63.20;;;;;;5069343;28;19932;-78
2022/07/27 11:00:57;;;;;;;;;;;20.20;63.20;;;;;;5051507;28;19939;-81
2022/07/27 11:03:29;;;;;;;;;;;20.20;63.10;;;;;;5051822;28;19913;-80
2022/07/27 11:06:01;;;;;;;;;;;20.20;63.10;;;;;;5051782;28;19982;-80
2022/07/27 11:08:28;;;;;;;;;;;20.20;63.00;;;;;;5051383;28;19912;-80
2022/07/27 11:10:54;;;;;;;;;;;20.20;63.00;;;;;;5051499;28;20075;-81
2022/07/27 11:13:20;;;;;;;;;;;20.20;62.80;;;;;;5069029;28;20041;-81
2022/07/27 11:16:14;;;;;;;;;;;20.20;62.80;;;;;;5050960;28;19916;-81
2022/07/27 11:18:41;;;;;;;;;;;20.10;62.80;;;;;;5066107;28;19970;-81
2022/07/27 11:21:17;;;;;;;;;;;20.00;63.00;;;;;;5050914;28;20425;-81
2022/07/27 11:23:44;;;;;;;;;;;20.10;63.00;;;;;;5050650;28;19920;-80
2022/07/27 11:26:10;;;;;;;;;;;20.20;63.00;;;;;;5050654;28;19908;-80
2022/07/27 11:28:36;;;;;;;;;;;20.30;62.90;;;;;;5069180;28;19925;-80
2022/07/27 11:31:02;;;;;;;;;;;20.30;62.90;;;;;;5068840;28;19977;-80
2022/07/27 11:33:28;;;;;;;;;;;20.40;63.00;;;;;;5068373;28;20011;-80
2022/07/27 11:35:58;;;;;;;;;;;20.40;62.90;;;;;;5050454;28;20007;-81
2022/07/27 11:38:23;;;;;;;;;;;20.30;63.00;;;;;;5068798;28;19962;-79
2022/07/27 11:40:50;;;;;;;;;;;20.30;63.30;;;;;;5050834;28;19908;-77
2022/07/27 11:43:31;;;;;;;;;;;20.30;63.40;;;;;;5050979;28;19912;-80
2022/07/27 11:46:09;;;;;;;;;;;20.40;63.40;;;;;;5068524;28;19909;-79
2022/07/27 11:48:34;;;;;;;;;;;20.50;63.40;;;;;;5068347;28;19920;-79
2022/07/27 11:51:00;;;;;;;;;;;20.80;63.70;;;;;;5068328;28;19916;-80
2022/07/27 11:53:27;;;;;;;;;;;21.00;64.10;;;;;;5050470;28;19913;-80
2022/07/27 11:55:53;;;;;;;;;;;21.20;63.70;;;;;;5051018;28;19981;-79
2022/07/27 11:58:19;;;;;;;;;;;21.50;63.60;;;;;;5033344;28;19938;-80
2022/07/27 12:00:44;;;;;;;;;;;21.70;63.30;;;;;;5049672;28;20361;-80
2022/07/27 12:03:19;;;;;;;;;;;21.70;63.40;;;;;;5033153;28;19920;-80
2022/07/27 12:05:49;;;;;;;;;;;21.80;63.30;;;;;;5067508;28;19916;-79
2022/07/27 12:08:15;;;;;;;;;;;21.80;63.30;;;;;;5067708;28;20019;-80
2022/07/27 12:10:57;;;;;;;;;;;21.90;63.00;;;;;;5067811;28;20339;-80
2022/07/27 12:13:30;;;;;;;;;;;21.90;62.90;;;;;;5033287;28;20335;-80
2022/07/27 12:15:56;;;;;;;;;;;21.90;62.70;;;;;;5067776;28;19909;-80
2022/07/27 12:18:22;;;;;;;;;;;21.80;62.50;;;;;;5068120;28;20372;-80
2022/07/27 12:20:47;;;;;;;;;;;21.70;62.60;;;;;;5067909;28;19909;-79
2022/07/27 12:23:13;;;;;;;;;;;21.60;62.70;;;;;;5033274;28;19944;-79
2022/07/27 12:25:40;;;;;;;;;;;21.50;62.70;;;;;;5032814;28;20307;-80
2022/07/27 12:28:11;;;;;;;;;;;21.40;62.70;;;;;;5049330;28;20065;-79
2022/07/27 12:30:37;;;;;;;;;;;21.30;62.80;;;;;;5067496;28;19920;-80
2022/07/27 12:33:05;;;;;;;;;;;21.30;63.00;;;;;;5049972;28;19912;-80
2022/07/27 12:35:32;;;;;;;;;;;21.20;63.10;;;;;;5049401;28;19943;-79
2022/07/27 12:38:05;;;;;;;;;;;21.30;63.10;;;;;;5049270;28;20062;-78
2022/07/27 12:40:32;;;;;;;;;;;21.20;63.10;;;;;;5049304;28;19920;-81
2022/07/27 12:43:01;;;;;;;;;;;21.30;63.60;;;;;;5049028;28;19994;-73
2022/07/27 12:45:29;;;;;;;;;;;21.30;63.00;;;;;;5067585;28;19909;-81
2022/07/27 12:48:03;;;;;;;;;;;21.30;63.00;;;;;;5049054;28;19939;-81
2022/07/27 12:50:28;;;;;;;;;;;21.20;63.00;;;;;;5049419;28;19919;-81
2022/07/27 12:52:54;;;;;;;;;;;21.10;63.00;;;;;;5048989;28;20283;-80
2022/07/27 12:55:20;;;;;;;;;;;21.10;63.10;;;;;;5049823;28;19928;-81
2022/07/27 12:57:47;;;;;;;;;;;21.00;63.00;;;;;;5067435;28;20262;-81
2022/07/27 13:00:14;;;;;;;;;;;21.00;63.10;;;;;;5049426;28;19979;-81
2022/07/27 13:02:39;;;;;;;;;;;21.00;63.00;;;;;;5033613;28;19927;-81
2022/07/27 13:05:07;;;;;;;;;;;20.90;63.10;;;;;;5067820;28;19912;-81
2022/07/27 13:07:33;;;;;;;;;;;20.90;63.20;;;;;;5049907;28;19928;-81
2022/07/27 13:09:58;;;;;;;;;;;20.90;63.40;;;;;;5033078;28;19973;-82
2022/07/27 13:12:24;;;;;;;;;;;20.90;63.20;;;;;;5049747;28;20330;-80
2022/07/27 13:14:50;;;;;;;;;;;20.90;63.30;;;;;;5067875;28;20290;-80
2022/07/27 13:17:15;;;;;;;;;;;20.90;63.40;;;;;;5053830;28;20044;-81
2022/07/27 13:19:41;;;;;;;;;;;20.90;63.50;;;;;;5071900;28;19917;-81
2022/07/27 13:22:06;;;;;;;;;;;21.00;63.40;;;;;;5053619;28;19916;-81
2022/07/27 13:24:32;;;;;;;;;;;21.00;63.30;;;;;;5053462;28;19912;-81
2022/07/27 13:26:58;;;;;;;;;;;21.10;63.10;;;;;;5053903;28;19923;-80
2022/07/27 13:29:28;;;;;;;;;;;21.00;63.10;;;;;;5055634;28;19912;-80
2022/07/27 13:31:53;;;;;;;;;;;21.00;63.20;;;;;;5039360;28;20257;-81
2022/07/27 13:34:19;;;;;;;;;;;21.10;63.20;;;;;;5070799;28;19939;-81
2022/07/27 13:36:45;;;;;;;;;;;21.10;63.20;;;;;;5071256;28;19955;-81
2022/07/27 13:39:10;;;;;;;;;;;21.00;63.20;;;;;;5036412;28;20398;-81
2022/07/27 13:41:38;;;;;;;;;;;20.90;63.20;;;;;;5053486;28;19948;-82
2022/07/27 13:44:04;;;;;;;;;;;20.80;63.30;;;;;;5053379;28;19912;-81
2022/07/27 13:46:29;;;;;;;;;;;20.70;63.40;;;;;;5053547;28;20319;-81
2022/07/27 13:48:55;;;;;;;;;;;20.80;63.60;;;;;;5053384;28;19947;-80
2022/07/27 13:51:21;;;;;;;;;;;20.80;63.60;;;;;;5036470;28;20107;-78
2022/07/27 13:53:46;;;;;;;;;;;21.00;63.50;;;;;;5053060;28;19912;-82
2022/07/27 13:56:12;;;;;;;;;;;21.20;63.30;;;;;;5052639;28;19924;-81
2022/07/27 13:58:39;;;;;;;;;;;21.30;63.40;;;;;;5036588;28;20303;-80
2022/07/27 14:01:08;;;;;;;;;;;21.30;63.20;;;;;;5071318;28;20011;-80
2022/07/27 14:03:34;;;;;;;;;;;21.30;63.20;;;;;;5053022;28;19917;-80
2022/07/27 14:06:00;;;;;;;;;;;21.30;63.40;;;;;;5070326;28;19931;-81
2022/07/27 14:08:25;;;;;;;;;;;21.40;63.40;;;;;;5035806;28;19942;-82
2022/07/27 14:10:51;;;;;;;;;;;21.50;63.40;;;;;;5052543;28;19920;-82
2022/07/27 14:13:17;;;;;;;;;;;21.50;63.30;;;;;;5070523;28;19938;-82
2022/07/27 14:15:44;;;;;;;;;;;21.60;63.40;;;;;;5052285;28;20098;-81